createdAt,value
2023-01-17T00:00:32.567Z,96469.06
2023-01-17T00:02:58.958Z,96473.81
2023-01-17T00:05:43.866Z,96470.00
2023-01-17T00:08:31.836Z,96476.38
2023-01-17T00:10:58.627Z,96468.69
2023-01-17T00:13:24.931Z,96473.09
2023-01-17T00:15:52.059Z,96478.00
2023-01-17T00:18:18.552Z,96475.53
2023-01-17T00:21:03.695Z,96480.13
2023-01-17T00:23:48.457Z,96469.50
2023-01-17T00:26:17.923Z,96477.50
2023-01-17T00:28:44.771Z,96482.06
2023-01-17T00:31:13.317Z,96478.66
2023-01-17T00:33:40.183Z,96486.63
2023-01-17T00:36:07.897Z,96473.19
2023-01-17T00:38:36.764Z,96495.97
2023-01-17T00:41:14.105Z,96487.13
2023-01-17T00:43:59.087Z,96490.75
2023-01-17T00:46:43.786Z,96500.56
2023-01-17T00:49:29.054Z,96501.50
2023-01-17T00:52:14.101Z,96517.53
2023-01-17T00:54:59.138Z,96516.22
2023-01-17T00:57:44.489Z,96517.50
2023-01-17T01:00:30.277Z,96525.97
2023-01-17T01:03:15.352Z,96534.97
2023-01-17T01:06:00.080Z,96537.88
2023-01-17T01:08:47.217Z,96548.22
2023-01-17T01:11:36.029Z,96540.69
2023-01-17T01:14:21.778Z,96556.25
2023-01-17T01:17:06.982Z,96551.28
2023-01-17T01:19:52.336Z,96564.03
2023-01-17T01:22:37.943Z,96574.28
2023-01-17T01:25:23.385Z,96572.72
2023-01-17T01:28:08.131Z,96571.47
2023-01-17T01:30:52.876Z,96580.50
2023-01-17T01:33:20.265Z,96581.91
2023-01-17T01:35:51.207Z,96579.50
2023-01-17T01:38:19.945Z,96586.47
2023-01-17T01:40:49.017Z,96605.72
2023-01-17T01:43:18.076Z,96610.00
2023-01-17T01:45:50.710Z,96606.56
2023-01-17T01:48:32.509Z,96620.19
2023-01-17T01:50:59.831Z,96620.53
2023-01-17T01:53:26.291Z,96631.19
2023-01-17T01:55:53.046Z,96631.16
2023-01-17T01:58:23.602Z,96637.94
2023-01-17T02:00:50.604Z,96640.56
2023-01-17T02:03:23.363Z,96641.22
2023-01-17T02:05:49.787Z,96649.50
2023-01-17T02:08:19.050Z,96645.16
2023-01-17T02:10:45.757Z,96665.69
2023-01-17T02:13:16.157Z,96665.19
2023-01-17T02:16:14.242Z,96669.66
2023-01-17T02:19:17.762Z,96674.88
2023-01-17T02:21:59.950Z,96696.84
2023-01-17T02:24:41.513Z,96681.22
2023-01-17T02:27:48.401Z,96690.81
2023-01-17T02:30:35.565Z,96696.00
2023-01-17T02:33:32.964Z,96699.81
2023-01-17T02:36:10.021Z,96696.91
2023-01-17T02:38:39.006Z,96693.34
2023-01-17T02:41:11.002Z,96692.28
2023-01-17T02:43:38.331Z,96699.88
2023-01-17T02:46:04.929Z,96697.88
2023-01-17T02:48:33.984Z,96701.84
2023-01-17T02:51:08.609Z,96707.66
2023-01-17T02:53:57.278Z,96701.47
2023-01-17T02:56:52.869Z,96702.72
2023-01-17T02:59:45.695Z,96708.28
2023-01-17T03:02:30.472Z,96705.50
2023-01-17T03:05:12.359Z,96710.28
2023-01-17T03:07:41.633Z,96714.09
2023-01-17T03:10:09.758Z,96727.16
2023-01-17T03:12:38.469Z,96724.78
2023-01-17T03:15:10.138Z,96718.78
2023-01-17T03:17:39.721Z,96721.03
2023-01-17T03:20:06.314Z,96726.88
2023-01-17T03:22:32.646Z,96727.09
2023-01-17T03:24:58.958Z,96734.09
2023-01-17T03:27:25.366Z,96747.03
2023-01-17T03:29:51.646Z,96737.63
2023-01-17T03:32:17.994Z,96733.13
2023-01-17T03:34:44.297Z,96740.00
2023-01-17T03:37:10.595Z,96746.50
2023-01-17T03:39:36.942Z,96738.75
2023-01-17T03:42:03.340Z,96743.66
2023-01-17T03:44:29.735Z,96743.53
2023-01-17T03:46:56.132Z,96753.31
2023-01-17T03:49:22.851Z,96751.38
2023-01-17T03:51:49.158Z,96753.59
2023-01-17T03:54:15.461Z,96748.53
2023-01-17T03:56:41.756Z,96753.38
2023-01-17T03:59:08.046Z,96738.13
2023-01-17T04:01:34.543Z,96752.09
2023-01-17T04:04:00.926Z,96762.56
2023-01-17T04:06:28.325Z,96751.28
2023-01-17T04:08:54.639Z,96757.09
2023-01-17T04:11:20.949Z,96760.50
2023-01-17T04:13:47.254Z,96770.00
2023-01-17T04:16:17.167Z,96770.38
2023-01-17T04:18:44.524Z,96773.31
2023-01-17T04:21:10.843Z,96762.91
2023-01-17T04:23:37.226Z,96768.00
2023-01-17T04:26:03.773Z,96774.03
2023-01-17T04:28:31.639Z,96767.91
2023-01-17T04:30:59.571Z,96784.59
2023-01-17T04:33:26.107Z,96786.25
2023-01-17T04:35:53.650Z,96781.88
2023-01-17T04:38:20.145Z,96783.81
2023-01-17T04:40:46.650Z,96785.56
2023-01-17T04:43:12.932Z,96777.78
2023-01-17T04:45:39.884Z,96770.09
2023-01-17T04:48:06.667Z,96788.50
2023-01-17T04:50:33.569Z,96783.63
2023-01-17T04:53:00.338Z,96782.94
2023-01-17T04:55:27.062Z,96772.28
2023-01-17T04:57:53.369Z,96772.63
2023-01-17T05:00:20.969Z,96774.03
2023-01-17T05:02:47.992Z,96774.50
2023-01-17T05:05:14.491Z,96766.34
2023-01-17T05:07:40.802Z,96770.97
2023-01-17T05:10:07.382Z,96773.06
2023-01-17T05:12:33.690Z,96783.44
2023-01-17T05:15:00.056Z,96774.63
2023-01-17T05:17:26.427Z,96785.00
2023-01-17T05:19:52.813Z,96783.94
2023-01-17T05:22:19.121Z,96797.53
2023-01-17T05:24:47.074Z,96802.31
2023-01-17T05:27:14.878Z,96803.28
2023-01-17T05:29:41.637Z,96807.50
2023-01-17T05:32:07.996Z,96805.41
2023-01-17T05:34:34.888Z,96806.00
2023-01-17T05:37:01.191Z,96803.41
2023-01-17T05:39:27.598Z,96806.00
2023-01-17T05:41:53.876Z,96802.91
2023-01-17T05:44:20.248Z,96806.63
2023-01-17T05:46:46.572Z,96804.25
2023-01-17T05:49:12.922Z,96800.28
2023-01-17T05:51:39.504Z,96797.81
2023-01-17T05:54:06.163Z,96804.63
2023-01-17T05:56:33.284Z,96795.59
2023-01-17T05:59:00.002Z,96783.13
2023-01-17T06:01:26.335Z,96806.44
2023-01-17T06:03:52.672Z,96800.94
2023-01-17T06:06:19.001Z,96802.34
2023-01-17T06:08:45.311Z,96799.56
2023-01-17T06:11:11.667Z,96807.94
2023-01-17T06:13:37.985Z,96826.63
2023-01-17T06:16:04.500Z,96823.06
2023-01-17T06:18:31.236Z,96819.22
2023-01-17T06:20:57.801Z,96832.50
2023-01-17T06:23:25.179Z,96843.91
2023-01-17T06:25:51.552Z,96846.53
2023-01-17T06:28:20.414Z,96843.66
2023-01-17T06:30:47.347Z,96841.09
2023-01-17T06:33:14.455Z,96839.63
2023-01-17T06:35:47.881Z,96841.91
2023-01-17T06:38:14.690Z,96848.09
2023-01-17T06:40:40.997Z,96855.41
2023-01-17T06:43:07.358Z,96859.03
2023-01-17T06:45:35.290Z,96850.69
2023-01-17T06:48:03.987Z,96862.09
2023-01-17T06:50:31.373Z,96871.41
2023-01-17T06:53:03.200Z,96879.16
2023-01-17T06:55:31.248Z,96881.19
2023-01-17T06:57:59.351Z,96875.00
2023-01-17T07:00:27.347Z,96891.59
2023-01-17T07:02:53.758Z,96878.72
2023-01-17T07:05:20.367Z,96875.84
2023-01-17T07:07:47.082Z,96873.94
2023-01-17T07:10:15.355Z,96868.03
2023-01-17T07:12:41.902Z,96876.78
2023-01-17T07:15:08.904Z,96880.91
2023-01-17T07:17:35.383Z,96871.19
2023-01-17T07:20:01.706Z,96885.31
2023-01-17T07:22:28.022Z,96879.00
2023-01-17T07:24:58.305Z,96877.78
2023-01-17T07:27:25.913Z,96883.53
2023-01-17T07:29:54.129Z,96882.59
2023-01-17T07:32:20.665Z,96883.25
2023-01-17T07:34:46.965Z,96876.41
2023-01-17T07:37:15.212Z,96873.78
2023-01-17T07:39:41.818Z,96875.72
2023-01-17T07:42:09.000Z,96872.28
2023-01-17T07:44:35.306Z,96870.94
2023-01-17T07:47:01.696Z,96862.00
2023-01-17T07:49:27.984Z,96856.34
2023-01-17T07:51:55.145Z,96861.69
2023-01-17T07:54:21.606Z,96869.66
2023-01-17T07:56:47.960Z,96866.47
2023-01-17T07:59:14.261Z,96863.59
2023-01-17T08:01:40.667Z,96864.44
2023-01-17T08:04:07.126Z,96862.56
2023-01-17T08:06:33.567Z,96866.38
2023-01-17T08:08:59.939Z,96853.22
2023-01-17T08:11:26.428Z,96854.16
2023-01-17T08:13:57.299Z,96840.06
2023-01-17T08:16:24.808Z,96843.47
2023-01-17T08:18:51.889Z,96846.66
2023-01-17T08:21:18.758Z,96837.84
2023-01-17T08:23:49.606Z,96840.31
2023-01-17T08:26:22.031Z,96849.25
2023-01-17T08:28:56.736Z,96840.88
2023-01-17T08:31:23.917Z,96834.53
2023-01-17T08:33:50.252Z,96831.28
2023-01-17T08:36:16.907Z,96831.66
2023-01-17T08:38:43.499Z,96831.25
2023-01-17T08:41:09.857Z,96833.03
2023-01-17T08:43:36.247Z,96831.25
2023-01-17T08:46:02.791Z,96834.69
2023-01-17T08:48:29.195Z,96836.44
2023-01-17T08:51:00.298Z,96830.97
2023-01-17T08:53:26.617Z,96841.50
2023-01-17T08:56:00.825Z,96838.19
2023-01-17T08:58:30.581Z,96840.38
2023-01-17T09:01:02.637Z,96834.47
2023-01-17T09:03:30.478Z,96834.47
2023-01-17T09:06:14.020Z,96831.16
2023-01-17T09:08:41.160Z,96832.09
2023-01-17T09:11:11.407Z,96828.78
2023-01-17T09:13:38.923Z,96823.97
2023-01-17T09:16:05.896Z,96826.44
2023-01-17T09:18:34.235Z,96832.31
2023-01-17T09:21:13.160Z,96835.72
2023-01-17T09:23:40.088Z,96825.44
2023-01-17T09:26:06.895Z,96825.56
2023-01-17T09:28:40.845Z,96833.97
2023-01-17T09:31:08.172Z,96834.59
2023-01-17T09:33:34.804Z,96839.47
2023-01-17T09:36:03.546Z,96834.94
2023-01-17T09:38:30.346Z,96836.41
2023-01-17T09:40:56.681Z,96837.91
2023-01-17T09:43:34.206Z,96841.44
2023-01-17T09:46:01.318Z,96841.47
2023-01-17T09:48:39.075Z,96836.47
2023-01-17T09:51:14.464Z,96832.00
2023-01-17T09:53:41.727Z,96839.72
2023-01-17T09:56:15.744Z,96849.03
2023-01-17T09:59:11.426Z,96842.47
2023-01-17T10:02:01.945Z,96842.03
2023-01-17T10:05:00.367Z,96849.97
2023-01-17T10:08:08.497Z,96854.69
2023-01-17T10:10:47.209Z,96847.22
2023-01-17T10:13:29.341Z,96843.13
2023-01-17T10:16:11.998Z,96846.28
2023-01-17T10:19:09.475Z,96851.22
2023-01-17T10:21:38.525Z,96841.66
2023-01-17T10:24:20.121Z,96850.00
2023-01-17T10:26:49.647Z,96854.38
2023-01-17T10:29:21.292Z,96843.75
2023-01-17T10:31:55.732Z,96827.81
2023-01-17T10:34:32.836Z,96828.88
2023-01-17T10:37:17.153Z,96825.25
2023-01-17T10:39:46.279Z,96831.53
2023-01-17T10:42:20.885Z,96824.72
2023-01-17T10:45:02.395Z,96832.78
2023-01-17T10:47:34.094Z,96832.88
2023-01-17T10:50:05.002Z,96838.38
2023-01-17T10:52:52.649Z,96847.50
2023-01-17T10:55:24.737Z,96837.63
2023-01-17T10:57:52.912Z,96831.00
2023-01-17T11:00:39.723Z,96829.75
2023-01-17T11:03:06.550Z,96826.84
2023-01-17T11:05:33.641Z,96828.50
2023-01-17T11:08:10.494Z,96835.00
2023-01-17T11:10:43.002Z,96815.47
2023-01-17T11:13:29.851Z,96817.47
2023-01-17T11:16:02.903Z,96816.22
2023-01-17T11:18:35.732Z,96816.88
2023-01-17T11:21:15.052Z,96804.78
2023-01-17T11:23:43.990Z,96821.16
2023-01-17T11:26:31.521Z,96822.72
2023-01-17T11:29:36.800Z,96815.44
2023-01-17T11:32:22.195Z,96818.59
2023-01-17T11:35:07.527Z,96811.16
2023-01-17T11:37:35.075Z,96811.50
2023-01-17T11:40:25.329Z,96803.75
2023-01-17T11:43:11.121Z,96801.88
2023-01-17T11:45:39.048Z,96797.84
2023-01-17T11:48:08.332Z,96796.44
2023-01-17T11:50:37.442Z,96808.56
2023-01-17T11:53:06.558Z,96808.06
2023-01-17T11:55:33.027Z,96796.69
2023-01-17T11:57:59.776Z,96793.00
2023-01-17T12:00:49.520Z,96793.81
2023-01-17T12:03:36.620Z,96781.84
2023-01-17T12:06:27.638Z,96774.50
2023-01-17T12:09:15.666Z,96763.94
2023-01-17T12:12:33.190Z,96771.09
2023-01-17T12:15:05.667Z,96776.56
2023-01-17T12:17:46.244Z,96764.69
2023-01-17T12:20:47.095Z,96759.50
2023-01-17T12:23:40.366Z,96754.31
2023-01-17T12:26:24.238Z,96755.81
2023-01-17T12:29:03.927Z,96749.56
2023-01-17T12:32:07.909Z,96752.03
2023-01-17T12:34:42.601Z,96747.91
2023-01-17T12:37:23.856Z,96741.25
2023-01-17T12:39:54.796Z,96740.09
2023-01-17T12:42:28.480Z,96728.63
2023-01-17T12:45:07.382Z,96733.69
2023-01-17T12:47:40.159Z,96737.97
2023-01-17T12:50:25.929Z,96729.75
2023-01-17T12:53:29.027Z,96727.13
2023-01-17T12:56:03.767Z,96730.72
2023-01-17T12:58:41.461Z,96734.66
2023-01-17T13:01:18.628Z,96717.81
2023-01-17T13:04:00.336Z,96734.66
2023-01-17T13:06:52.773Z,96730.25
2023-01-17T13:09:22.711Z,96726.16
2023-01-17T13:11:57.608Z,96726.28
2023-01-17T13:14:24.197Z,96726.78
2023-01-17T13:16:57.744Z,96725.28
2023-01-17T13:19:28.772Z,96727.09
2023-01-17T13:21:56.369Z,96736.28
2023-01-17T13:24:27.245Z,96729.69
2023-01-17T13:27:14.563Z,96730.69
2023-01-17T13:29:57.774Z,96740.19
2023-01-17T13:32:48.898Z,96734.94
2023-01-17T13:35:27.814Z,96730.66
2023-01-17T13:38:10.637Z,96723.63
2023-01-17T13:40:50.636Z,96730.69
2023-01-17T13:43:30.622Z,96723.28
2023-01-17T13:46:02.912Z,96719.50
2023-01-17T13:48:40.741Z,96726.00
2023-01-17T13:51:08.962Z,96718.03
2023-01-17T13:53:35.310Z,96717.88
2023-01-17T13:56:27.076Z,96712.13
2023-01-17T13:59:01.949Z,96725.38
2023-01-17T14:01:42.869Z,96722.56
2023-01-17T14:04:11.161Z,96714.88
2023-01-17T14:06:44.441Z,96718.63
2023-01-17T14:09:18.919Z,96712.09
2023-01-17T14:12:02.316Z,96711.91
2023-01-17T14:14:41.448Z,96714.69
2023-01-17T14:17:23.479Z,96717.13
2023-01-17T14:19:51.519Z,96712.41
2023-01-17T14:22:20.584Z,96718.94
2023-01-17T14:25:11.990Z,96723.53
2023-01-17T14:27:45.285Z,96730.56
2023-01-17T14:30:18.064Z,96737.47
2023-01-17T14:33:02.931Z,96734.88
2023-01-17T14:35:32.270Z,96732.53
2023-01-17T14:38:01.599Z,96727.94
2023-01-17T14:40:30.697Z,96728.25
2023-01-17T14:43:12.957Z,96726.25
2023-01-17T14:45:41.059Z,96722.91
2023-01-17T14:48:16.308Z,96722.38
2023-01-17T14:50:44.803Z,96718.38
2023-01-17T14:53:11.082Z,96713.44
2023-01-17T14:55:58.358Z,96717.78
2023-01-17T14:58:30.709Z,96720.72
2023-01-17T15:01:03.018Z,96720.53
2023-01-17T15:03:41.639Z,96722.66
2023-01-17T15:06:16.428Z,96724.09
2023-01-17T15:08:42.899Z,96722.75
2023-01-17T15:11:16.519Z,96719.34
2023-01-17T15:13:45.985Z,96716.72
2023-01-17T15:16:25.781Z,96724.75
2023-01-17T15:18:53.891Z,96731.78
2023-01-17T15:21:23.933Z,96723.25
2023-01-17T15:23:54.100Z,96723.31
2023-01-17T15:26:23.916Z,96720.78
2023-01-17T15:28:52.049Z,96714.53
2023-01-17T15:31:37.612Z,96723.59
2023-01-17T15:34:08.275Z,96726.56
2023-01-17T15:36:35.492Z,96734.91
2023-01-17T15:39:06.162Z,96742.00
2023-01-17T15:41:38.265Z,96745.13
2023-01-17T15:44:06.346Z,96740.88
2023-01-17T15:46:42.158Z,96743.06
2023-01-17T15:49:20.729Z,96746.94
2023-01-17T15:51:54.081Z,96748.38
2023-01-17T15:54:34.216Z,96743.00
2023-01-17T15:57:19.299Z,96737.00
2023-01-17T16:00:14.522Z,96748.97
2023-01-17T16:02:43.901Z,96744.44
2023-01-17T16:05:22.933Z,96746.94
2023-01-17T16:07:51.789Z,96755.53
2023-01-17T16:10:18.629Z,96742.09
2023-01-17T16:12:50.733Z,96741.50
2023-01-17T16:15:18.542Z,96745.28
2023-01-17T16:17:47.978Z,96745.63
2023-01-17T16:20:23.062Z,96744.56
2023-01-17T16:22:49.922Z,96731.72
2023-01-17T16:25:19.871Z,96734.84
2023-01-17T16:27:46.950Z,96731.59
2023-01-17T16:30:16.656Z,96742.22
2023-01-17T16:32:48.329Z,96736.09
2023-01-17T16:35:20.649Z,96739.34
2023-01-17T16:37:55.607Z,96746.16
2023-01-17T16:40:24.745Z,96746.53
2023-01-17T16:42:51.448Z,96750.06
2023-01-17T16:45:18.752Z,96749.25
2023-01-17T16:47:47.388Z,96756.47
2023-01-17T16:50:16.625Z,96766.56
2023-01-17T16:52:42.960Z,96762.09
2023-01-17T16:55:13.748Z,96761.19
2023-01-17T16:57:40.130Z,96783.09
2023-01-17T17:00:07.196Z,96771.34
2023-01-17T17:02:33.722Z,96767.09
2023-01-17T17:05:00.304Z,96773.56
2023-01-17T17:07:26.679Z,96777.84
2023-01-17T17:09:52.978Z,96782.47
2023-01-17T17:12:19.281Z,96779.38
2023-01-17T17:14:45.568Z,96772.75
2023-01-17T17:17:11.906Z,96776.34
2023-01-17T17:19:38.223Z,96775.34
2023-01-17T17:22:06.399Z,96775.25
2023-01-17T17:24:33.110Z,96779.22
2023-01-17T17:26:59.477Z,96780.94
2023-01-17T17:29:25.791Z,96783.19
2023-01-17T17:31:52.204Z,96788.38
2023-01-17T17:34:19.079Z,96783.94
2023-01-17T17:36:45.721Z,96780.47
2023-01-17T17:39:14.703Z,96784.69
2023-01-17T17:41:42.920Z,96780.78
2023-01-17T17:44:09.281Z,96786.78
2023-01-17T17:46:36.995Z,96788.66
2023-01-17T17:49:04.045Z,96782.41
2023-01-17T17:51:34.035Z,96785.91
2023-01-17T17:54:06.290Z,96777.13
2023-01-17T17:56:34.065Z,96793.31
2023-01-17T17:59:01.725Z,96792.75
2023-01-17T18:01:28.536Z,96793.50
2023-01-17T18:03:57.288Z,96788.25
2023-01-17T18:06:23.997Z,96796.00
2023-01-17T18:08:51.864Z,96790.09
2023-01-17T18:11:21.238Z,96799.41
2023-01-17T18:13:52.300Z,96791.13
2023-01-17T18:16:31.308Z,96793.84
2023-01-17T18:18:59.091Z,96807.53
2023-01-17T18:21:27.947Z,96807.22
2023-01-17T18:23:58.585Z,96810.91
2023-01-17T18:26:30.203Z,96809.34
2023-01-17T18:28:58.155Z,96814.13
2023-01-17T18:31:27.018Z,96808.13
2023-01-17T18:33:54.848Z,96823.66
2023-01-17T18:36:23.229Z,96831.59
2023-01-17T18:38:50.525Z,96827.56
2023-01-17T18:41:20.335Z,96840.31
2023-01-17T18:43:47.829Z,96842.47
2023-01-17T18:46:15.621Z,96838.03
2023-01-17T18:48:42.376Z,96838.63
2023-01-17T18:51:11.702Z,96843.22
2023-01-17T18:53:39.531Z,96854.28
2023-01-17T18:56:09.069Z,96854.28
2023-01-17T18:58:38.685Z,96849.34
2023-01-17T19:01:06.584Z,96856.09
2023-01-17T19:03:33.027Z,96854.16
2023-01-17T19:06:04.304Z,96854.16
2023-01-17T19:08:31.446Z,96857.03
2023-01-17T19:10:57.869Z,96853.31
2023-01-17T19:13:24.707Z,96859.00
2023-01-17T19:15:51.764Z,96864.44
2023-01-17T19:18:18.204Z,96862.00
2023-01-17T19:20:44.743Z,96874.34
2023-01-17T19:23:11.156Z,96876.00
2023-01-17T19:25:37.486Z,96881.63
2023-01-17T19:28:04.252Z,96879.69
2023-01-17T19:30:30.621Z,96878.72
2023-01-17T19:32:56.919Z,96882.28
2023-01-17T19:35:23.430Z,96892.75
2023-01-17T19:37:51.273Z,96900.44
2023-01-17T19:40:19.727Z,96894.66
2023-01-17T19:42:47.437Z,96896.81
2023-01-17T19:45:14.629Z,96900.69
2023-01-17T19:47:41.090Z,96895.31
2023-01-17T19:50:09.387Z,96902.19
2023-01-17T19:52:35.872Z,96902.06
2023-01-17T19:55:02.524Z,96898.22
2023-01-17T19:57:35.233Z,96905.06
2023-01-17T20:00:02.461Z,96902.59
2023-01-17T20:02:39.156Z,96903.44
2023-01-17T20:05:06.284Z,96896.44
2023-01-17T20:07:33.572Z,96895.34
2023-01-17T20:10:00.322Z,96906.19
2023-01-17T20:12:26.679Z,96901.53
2023-01-17T20:14:54.211Z,96907.84
2023-01-17T20:17:21.100Z,96910.03
2023-01-17T20:19:47.454Z,96919.06
2023-01-17T20:22:13.776Z,96919.97
2023-01-17T20:24:40.084Z,96913.00
2023-01-17T20:27:06.419Z,96914.25
2023-01-17T20:29:33.778Z,96919.41
2023-01-17T20:32:00.169Z,96929.13
2023-01-17T20:34:26.599Z,96930.38
2023-01-17T20:36:57.343Z,96929.78
2023-01-17T20:39:23.719Z,96935.84
2023-01-17T20:41:51.369Z,96932.38
2023-01-17T20:44:19.251Z,96934.94
2023-01-17T20:46:47.636Z,96940.53
2023-01-17T20:49:16.502Z,96943.75
2023-01-17T20:51:44.019Z,96942.19
2023-01-17T20:54:14.121Z,96947.81
2023-01-17T20:56:40.605Z,96945.88
2023-01-17T20:59:10.964Z,96944.13
2023-01-17T21:01:37.980Z,96935.47
2023-01-17T21:04:05.640Z,96939.44
2023-01-17T21:06:32.005Z,96933.63
2023-01-17T21:08:59.675Z,96941.38
2023-01-17T21:11:27.619Z,96945.94
2023-01-17T21:13:54.143Z,96943.50
2023-01-17T21:16:22.717Z,96945.97
2023-01-17T21:18:50.847Z,96953.47
2023-01-17T21:21:24.227Z,96956.91
2023-01-17T21:23:52.171Z,96956.06
2023-01-17T21:26:20.280Z,96965.94
2023-01-17T21:28:48.045Z,96956.94
2023-01-17T21:31:29.186Z,96952.06
2023-01-17T21:34:04.812Z,96956.59
2023-01-17T21:36:34.095Z,96961.03
2023-01-17T21:39:04.489Z,96952.78
2023-01-17T21:41:34.650Z,96948.94
2023-01-17T21:44:03.951Z,96950.81
2023-01-17T21:46:30.819Z,96946.00
2023-01-17T21:48:57.538Z,96951.63
2023-01-17T21:51:24.154Z,96962.66
2023-01-17T21:53:50.589Z,96954.41
2023-01-17T21:56:35.593Z,96962.88
2023-01-17T21:59:01.964Z,96966.56
2023-01-17T22:01:31.908Z,96972.63
2023-01-17T22:04:01.137Z,96964.59
2023-01-17T22:06:30.429Z,96973.75
2023-01-17T22:08:57.515Z,96968.28
2023-01-17T22:11:26.141Z,96965.78
2023-01-17T22:13:53.227Z,96967.69
2023-01-17T22:16:23.329Z,96968.53
2023-01-17T22:18:50.591Z,96962.53
2023-01-17T22:21:25.600Z,96970.38
2023-01-17T22:23:54.102Z,96963.09
2023-01-17T22:26:22.831Z,96955.72
2023-01-17T22:28:49.176Z,96962.72
2023-01-17T22:31:24.973Z,96969.22
2023-01-17T22:33:54.193Z,96969.19
2023-01-17T22:36:20.502Z,96959.63
2023-01-17T22:38:47.249Z,96969.19
2023-01-17T22:41:20.068Z,96967.84
2023-01-17T22:43:49.216Z,96938.66
2023-01-17T22:46:18.672Z,96969.25
2023-01-17T22:48:45.438Z,96961.19
2023-01-17T22:51:14.605Z,96969.09
2023-01-17T22:53:42.800Z,96964.84
2023-01-17T22:56:12.446Z,96965.44
2023-01-17T22:58:42.149Z,96961.44
2023-01-17T23:01:12.204Z,96972.50
2023-01-17T23:03:40.598Z,96960.66
2023-01-17T23:06:09.080Z,96958.50
2023-01-17T23:08:36.963Z,96962.25
2023-01-17T23:11:35.590Z,96963.75
2023-01-17T23:14:02.004Z,96959.25
2023-01-17T23:16:47.114Z,96953.03
2023-01-17T23:19:23.014Z,96959.66
2023-01-17T23:22:10.704Z,96950.06
2023-01-17T23:24:43.084Z,96944.16
2023-01-17T23:27:55.337Z,96957.31
2023-01-17T23:30:27.838Z,96952.38
2023-01-17T23:33:00.554Z,96955.56
2023-01-17T23:35:30.144Z,96956.81
2023-01-17T23:38:15.579Z,96953.66
2023-01-17T23:40:42.538Z,96955.72
2023-01-17T23:43:25.564Z,96949.81
2023-01-17T23:45:53.233Z,96954.94
2023-01-17T23:48:20.995Z,96950.97
2023-01-17T23:50:48.404Z,96946.22
2023-01-17T23:53:22.183Z,96947.00
2023-01-17T23:55:56.639Z,96947.84
2023-01-17T23:58:25.150Z,96941.84
